sensor_id;sensor_type;location;lat;lon;timestamp;temperature;humidity
24049;DHT22;12250;50.956;4.746;2023-07-22T00:00:45;12.60;99.90
24049;DHT22;12250;50.956;4.746;2023-07-22T00:03:11;12.60;99.90
24049;DHT22;12250;50.956;4.746;2023-07-22T00:05:37;12.60;99.90
24049;DHT22;12250;50.956;4.746;2023-07-22T00:08:02;12.60;99.90
24049;DHT22;12250;50.956;4.746;2023-07-22T00:10:30;12.60;99.90
24049;DHT22;12250;50.956;4.746;2023-07-22T00:12:55;12.60;99.90
24049;DHT22;12250;50.956;4.746;2023-07-22T00:15:21;12.70;99.90
24049;DHT22;12250;50.956;4.746;2023-07-22T00:17:49;12.80;99.90
24049;DHT22;12250;50.956;4.746;2023-07-22T00:20:16;12.90;99.90
24049;DHT22;12250;50.956;4.746;2023-07-22T00:22:42;12.90;99.90
24049;DHT22;12250;50.956;4.746;2023-07-22T00:25:10;12.90;99.90
24049;DHT22;12250;50.956;4.746;2023-07-22T00:27:37;13.00;99.90
24049;DHT22;12250;50.956;4.746;2023-07-22T00:30:05;13.00;99.90
24049;DHT22;12250;50.956;4.746;2023-07-22T00:32:30;13.00;99.90
24049;DHT22;12250;50.956;4.746;2023-07-22T00:34:56;13.10;99.90
24049;DHT22;12250;50.956;4.746;2023-07-22T00:37:22;13.20;99.90
24049;DHT22;12250;50.956;4.746;2023-07-22T00:39:47;13.30;99.90
24049;DHT22;12250;50.956;4.746;2023-07-22T00:42:13;13.30;99.90
24049;DHT22;12250;50.956;4.746;2023-07-22T00:44:39;13.40;99.90
24049;DHT22;12250;50.956;4.746;2023-07-22T00:47:04;13.40;99.90
24049;DHT22;12250;50.956;4.746;2023-07-22T00:49:31;13.40;99.90
24049;DHT22;12250;50.956;4.746;2023-07-22T00:52:01;13.40;99.90
24049;DHT22;12250;50.956;4.746;2023-07-22T00:54:29;13.30;99.90
24049;DHT22;12250;50.956;4.746;2023-07-22T00:56:56;13.30;99.90
24049;DHT22;12250;50.956;4.746;2023-07-22T00:59:22;13.30;99.90
24049;DHT22;12250;50.956;4.746;2023-07-22T01:01:48;13.30;99.90
24049;DHT22;12250;50.956;4.746;2023-07-22T01:04:15;13.30;99.90
24049;DHT22;12250;50.956;4.746;2023-07-22T01:06:42;13.40;99.90
24049;DHT22;12250;50.956;4.746;2023-07-22T01:09:09;13.40;99.90
24049;DHT22;12250;50.956;4.746;2023-07-22T01:11:35;13.40;99.90
24049;DHT22;12250;50.956;4.746;2023-07-22T01:14:01;13.40;99.90
24049;DHT22;12250;50.956;4.746;2023-07-22T01:16:27;13.50;99.90
24049;DHT22;12250;50.956;4.746;2023-07-22T01:18:54;13.50;99.90
24049;DHT22;12250;50.956;4.746;2023-07-22T01:21:22;13.50;99.90
24049;DHT22;12250;50.956;4.746;2023-07-22T01:23:48;13.60;99.90
24049;DHT22;12250;50.956;4.746;2023-07-22T01:26:14;13.70;99.90
24049;DHT22;12250;50.956;4.746;2023-07-22T01:28:39;13.70;99.90
24049;DHT22;12250;50.956;4.746;2023-07-22T01:31:05;13.70;99.90
24049;DHT22;12250;50.956;4.746;2023-07-22T01:33:31;13.70;99.90
24049;DHT22;12250;50.956;4.746;2023-07-22T01:35:57;13.70;99.90
24049;DHT22;12250;50.956;4.746;2023-07-22T01:38:23;13.80;99.90
24049;DHT22;12250;50.956;4.746;2023-07-22T01:40:48;13.80;99.90
24049;DHT22;12250;50.956;4.746;2023-07-22T01:43:14;13.90;99.90
24049;DHT22;12250;50.956;4.746;2023-07-22T01:45:40;13.90;99.90
24049;DHT22;12250;50.956;4.746;2023-07-22T01:48:06;13.90;99.90
24049;DHT22;12250;50.956;4.746;2023-07-22T01:50:32;13.90;99.90
24049;DHT22;12250;50.956;4.746;2023-07-22T01:52:57;14.00;99.90
24049;DHT22;12250;50.956;4.746;2023-07-22T01:55:23;14.00;99.90
24049;DHT22;12250;50.956;4.746;2023-07-22T01:57:49;14.00;99.90
24049;DHT22;12250;50.956;4.746;2023-07-22T02:00:14;14.10;99.90
24049;DHT22;12250;50.956;4.746;2023-07-22T02:02:41;14.00;99.90
24049;DHT22;12250;50.956;4.746;2023-07-22T02:05:07;14.00;99.90
24049;DHT22;12250;50.956;4.746;2023-07-22T02:07:34;14.10;99.90
24049;DHT22;12250;50.956;4.746;2023-07-22T02:10:00;14.10;99.90
24049;DHT22;12250;50.956;4.746;2023-07-22T02:12:26;14.00;99.90
24049;DHT22;12250;50.956;4.746;2023-07-22T02:14:51;14.00;99.90
24049;DHT22;12250;50.956;4.746;2023-07-22T02:17:17;14.00;99.90
24049;DHT22;12250;50.956;4.746;2023-07-22T02:19:43;14.00;99.90
24049;DHT22;12250;50.956;4.746;2023-07-22T02:22:09;13.90;99.90
24049;DHT22;12250;50.956;4.746;2023-07-22T02:24:35;13.80;99.90
24049;DHT22;12250;50.956;4.746;2023-07-22T02:27:00;13.70;99.90
24049;DHT22;12250;50.956;4.746;2023-07-22T02:29:26;13.60;99.90
24049;DHT22;12250;50.956;4.746;2023-07-22T02:31:52;13.60;99.90
24049;DHT22;12250;50.956;4.746;2023-07-22T02:34:17;13.50;99.90
24049;DHT22;12250;50.956;4.746;2023-07-22T02:36:43;13.40;99.90
24049;DHT22;12250;50.956;4.746;2023-07-22T02:39:09;13.40;99.90
24049;DHT22;12250;50.956;4.746;2023-07-22T02:41:36;13.30;99.90
24049;DHT22;12250;50.956;4.746;2023-07-22T02:44:02;13.30;99.90
24049;DHT22;12250;50.956;4.746;2023-07-22T02:46:29;13.20;99.90
24049;DHT22;12250;50.956;4.746;2023-07-22T02:48:54;13.20;99.90
24049;DHT22;12250;50.956;4.746;2023-07-22T02:51:20;13.10;99.90
24049;DHT22;12250;50.956;4.746;2023-07-22T02:53:46;13.10;99.90
24049;DHT22;12250;50.956;4.746;2023-07-22T02:56:12;13.00;99.90
24049;DHT22;12250;50.956;4.746;2023-07-22T02:58:39;13.00;99.90
24049;DHT22;12250;50.956;4.746;2023-07-22T03:01:05;13.00;99.90
24049;DHT22;12250;50.956;4.746;2023-07-22T03:03:34;12.90;99.90
24049;DHT22;12250;50.956;4.746;2023-07-22T03:06:01;12.80;99.90
24049;DHT22;12250;50.956;4.746;2023-07-22T03:08:27;12.80;99.90
24049;DHT22;12250;50.956;4.746;2023-07-22T03:10:53;12.70;99.90
24049;DHT22;12250;50.956;4.746;2023-07-22T03:13:18;12.70;99.90
24049;DHT22;12250;50.956;4.746;2023-07-22T03:15:44;12.60;99.90
24049;DHT22;12250;50.956;4.746;2023-07-22T03:18:11;12.60;99.90
24049;DHT22;12250;50.956;4.746;2023-07-22T03:20:38;12.60;99.90
24049;DHT22;12250;50.956;4.746;2023-07-22T03:23:06;12.50;99.90
24049;DHT22;12250;50.956;4.746;2023-07-22T03:25:34;12.50;99.90
24049;DHT22;12250;50.956;4.746;2023-07-22T03:28:05;12.50;99.90
24049;DHT22;12250;50.956;4.746;2023-07-22T03:30:32;12.40;99.90
24049;DHT22;12250;50.956;4.746;2023-07-22T03:32:58;12.40;99.90
24049;DHT22;12250;50.956;4.746;2023-07-22T03:35:24;12.50;99.90
24049;DHT22;12250;50.956;4.746;2023-07-22T03:37:50;12.50;99.90
24049;DHT22;12250;50.956;4.746;2023-07-22T03:40:15;12.60;99.90
24049;DHT22;12250;50.956;4.746;2023-07-22T03:42:41;12.70;99.90
24049;DHT22;12250;50.956;4.746;2023-07-22T03:45:08;12.70;99.90
24049;DHT22;12250;50.956;4.746;2023-07-22T03:47:35;12.80;99.90
24049;DHT22;12250;50.956;4.746;2023-07-22T03:50:01;12.80;99.90
24049;DHT22;12250;50.956;4.746;2023-07-22T03:52:27;12.80;99.90
24049;DHT22;12250;50.956;4.746;2023-07-22T03:54:53;12.80;99.90
24049;DHT22;12250;50.956;4.746;2023-07-22T03:57:19;12.80;99.90
24049;DHT22;12250;50.956;4.746;2023-07-22T03:59:44;12.80;99.90
24049;DHT22;12250;50.956;4.746;2023-07-22T04:02:10;12.80;99.90
24049;DHT22;12250;50.956;4.746;2023-07-22T04:04:36;12.80;99.90
24049;DHT22;12250;50.956;4.746;2023-07-22T04:07:02;12.70;99.90
24049;DHT22;12250;50.956;4.746;2023-07-22T04:09:27;12.70;99.90
24049;DHT22;12250;50.956;4.746;2023-07-22T04:11:53;12.70;99.90
24049;DHT22;12250;50.956;4.746;2023-07-22T04:14:19;12.60;99.90
24049;DHT22;12250;50.956;4.746;2023-07-22T04:16:44;12.70;99.90
24049;DHT22;12250;50.956;4.746;2023-07-22T04:19:10;12.70;99.90
24049;DHT22;12250;50.956;4.746;2023-07-22T04:21:36;12.70;99.90
24049;DHT22;12250;50.956;4.746;2023-07-22T04:24:01;12.70;99.90
24049;DHT22;12250;50.956;4.746;2023-07-22T04:26:27;12.70;99.90
24049;DHT22;12250;50.956;4.746;2023-07-22T04:28:53;12.70;99.90
24049;DHT22;12250;50.956;4.746;2023-07-22T04:31:19;12.80;99.90
24049;DHT22;12250;50.956;4.746;2023-07-22T04:33:44;12.90;99.90
24049;DHT22;12250;50.956;4.746;2023-07-22T04:36:10;12.90;99.90
24049;DHT22;12250;50.956;4.746;2023-07-22T04:38:36;13.10;99.90
24049;DHT22;12250;50.956;4.746;2023-07-22T04:41:03;13.20;99.90
24049;DHT22;12250;50.956;4.746;2023-07-22T04:43:29;13.30;99.90
24049;DHT22;12250;50.956;4.746;2023-07-22T04:45:54;13.50;99.90
24049;DHT22;12250;50.956;4.746;2023-07-22T04:48:21;13.60;99.90
24049;DHT22;12250;50.956;4.746;2023-07-22T04:50:48;13.80;99.90
24049;DHT22;12250;50.956;4.746;2023-07-22T04:53:17;14.00;99.90
24049;DHT22;12250;50.956;4.746;2023-07-22T04:55:42;14.20;99.90
24049;DHT22;12250;50.956;4.746;2023-07-22T04:58:08;14.30;99.90
24049;DHT22;12250;50.956;4.746;2023-07-22T05:00:36;14.50;99.90
24049;DHT22;12250;50.956;4.746;2023-07-22T05:03:03;14.70;99.90
24049;DHT22;12250;50.956;4.746;2023-07-22T05:05:29;14.80;99.90
24049;DHT22;12250;50.956;4.746;2023-07-22T05:07:54;14.90;99.90
24049;DHT22;12250;50.956;4.746;2023-07-22T05:10:20;15.00;99.90
24049;DHT22;12250;50.956;4.746;2023-07-22T05:12:46;15.10;99.90
24049;DHT22;12250;50.956;4.746;2023-07-22T05:15:12;15.20;99.90
24049;DHT22;12250;50.956;4.746;2023-07-22T05:17:39;15.20;99.90
24049;DHT22;12250;50.956;4.746;2023-07-22T05:20:05;15.20;99.90
24049;DHT22;12250;50.956;4.746;2023-07-22T05:22:32;15.30;99.90
24049;DHT22;12250;50.956;4.746;2023-07-22T05:24:59;15.30;99.90
24049;DHT22;12250;50.956;4.746;2023-07-22T05:27:24;15.30;99.90
24049;DHT22;12250;50.956;4.746;2023-07-22T05:29:50;15.30;99.90
24049;DHT22;12250;50.956;4.746;2023-07-22T05:32:16;15.30;99.90
24049;DHT22;12250;50.956;4.746;2023-07-22T05:34:41;15.30;99.90
24049;DHT22;12250;50.956;4.746;2023-07-22T05:37:07;15.30;99.90
24049;DHT22;12250;50.956;4.746;2023-07-22T05:39:32;15.20;99.90
24049;DHT22;12250;50.956;4.746;2023-07-22T05:41:58;15.20;99.90
24049;DHT22;12250;50.956;4.746;2023-07-22T05:44:24;15.20;99.90
24049;DHT22;12250;50.956;4.746;2023-07-22T05:46:49;15.30;99.90
24049;DHT22;12250;50.956;4.746;2023-07-22T05:49:15;15.40;99.90
24049;DHT22;12250;50.956;4.746;2023-07-22T05:51:41;15.60;99.90
24049;DHT22;12250;50.956;4.746;2023-07-22T05:54:06;15.70;99.90
24049;DHT22;12250;50.956;4.746;2023-07-22T05:56:32;15.90;99.90
24049;DHT22;12250;50.956;4.746;2023-07-22T05:58:58;15.90;99.90
24049;DHT22;12250;50.956;4.746;2023-07-22T06:01:24;15.90;99.90
24049;DHT22;12250;50.956;4.746;2023-07-22T06:03:52;16.00;99.90
24049;DHT22;12250;50.956;4.746;2023-07-22T06:06:18;16.10;99.90
24049;DHT22;12250;50.956;4.746;2023-07-22T06:08:44;16.30;99.90
24049;DHT22;12250;50.956;4.746;2023-07-22T06:11:10;16.50;99.90
24049;DHT22;12250;50.956;4.746;2023-07-22T06:13:35;16.70;99.90
24049;DHT22;12250;50.956;4.746;2023-07-22T06:16:01;16.80;99.90
24049;DHT22;12250;50.956;4.746;2023-07-22T06:18:28;16.90;99.90
24049;DHT22;12250;50.956;4.746;2023-07-22T06:20:53;17.10;99.90
24049;DHT22;12250;50.956;4.746;2023-07-22T06:23:19;17.20;99.90
24049;DHT22;12250;50.956;4.746;2023-07-22T06:25:45;17.40;99.90
24049;DHT22;12250;50.956;4.746;2023-07-22T06:28:10;17.60;99.90
24049;DHT22;12250;50.956;4.746;2023-07-22T06:30:36;17.70;99.90
24049;DHT22;12250;50.956;4.746;2023-07-22T06:33:02;18.00;99.90
24049;DHT22;12250;50.956;4.746;2023-07-22T06:35:28;18.30;99.90
24049;DHT22;12250;50.956;4.746;2023-07-22T06:37:53;18.70;99.90
24049;DHT22;12250;50.956;4.746;2023-07-22T06:40:19;18.90;99.90
24049;DHT22;12250;50.956;4.746;2023-07-22T06:42:45;19.10;99.90
24049;DHT22;12250;50.956;4.746;2023-07-22T06:45:10;19.40;99.90
24049;DHT22;12250;50.956;4.746;2023-07-22T06:47:36;19.50;99.90
24049;DHT22;12250;50.956;4.746;2023-07-22T06:50:03;19.70;99.90
24049;DHT22;12250;50.956;4.746;2023-07-22T06:52:33;19.90;99.90
24049;DHT22;12250;50.956;4.746;2023-07-22T06:54:59;20.00;99.90
24049;DHT22;12250;50.956;4.746;2023-07-22T06:57:25;20.00;99.90
24049;DHT22;12250;50.956;4.746;2023-07-22T06:59:53;20.00;99.90
24049;DHT22;12250;50.956;4.746;2023-07-22T07:02:19;20.00;99.90
24049;DHT22;12250;50.956;4.746;2023-07-22T07:04:44;20.10;99.90
24049;DHT22;12250;50.956;4.746;2023-07-22T07:07:11;20.10;99.90
24049;DHT22;12250;50.956;4.746;2023-07-22T07:09:38;20.10;99.90
24049;DHT22;12250;50.956;4.746;2023-07-22T07:12:04;20.30;99.90
24049;DHT22;12250;50.956;4.746;2023-07-22T07:14:30;20.40;99.90
24049;DHT22;12250;50.956;4.746;2023-07-22T07:16:55;20.60;99.90
24049;DHT22;12250;50.956;4.746;2023-07-22T07:19:21;20.90;99.90
24049;DHT22;12250;50.956;4.746;2023-07-22T07:21:47;21.10;99.90
24049;DHT22;12250;50.956;4.746;2023-07-22T07:24:13;21.10;99.90
24049;DHT22;12250;50.956;4.746;2023-07-22T07:26:38;21.20;99.90
24049;DHT22;12250;50.956;4.746;2023-07-22T07:29:04;21.30;99.90
24049;DHT22;12250;50.956;4.746;2023-07-22T07:31:30;21.40;99.90
24049;DHT22;12250;50.956;4.746;2023-07-22T07:33:55;21.40;99.90
24049;DHT22;12250;50.956;4.746;2023-07-22T07:36:21;21.50;99.90
24049;DHT22;12250;50.956;4.746;2023-07-22T07:38:47;21.70;99.90
24049;DHT22;12250;50.956;4.746;2023-07-22T07:41:12;21.80;99.90
24049;DHT22;12250;50.956;4.746;2023-07-22T07:43:39;22.00;99.90
24049;DHT22;12250;50.956;4.746;2023-07-22T07:48:48;22.10;99.90
24049;DHT22;12250;50.956;4.746;2023-07-22T07:51:14;22.20;99.90
24049;DHT22;12250;50.956;4.746;2023-07-22T07:53:41;22.20;99.90
24049;DHT22;12250;50.956;4.746;2023-07-22T07:56:07;22.10;99.90
24049;DHT22;12250;50.956;4.746;2023-07-22T07:58:33;21.90;99.90
24049;DHT22;12250;50.956;4.746;2023-07-22T08:00:59;21.80;99.90
24049;DHT22;12250;50.956;4.746;2023-07-22T08:03:25;22.00;99.90
24049;DHT22;12250;50.956;4.746;2023-07-22T08:05:50;22.20;99.90
24049;DHT22;12250;50.956;4.746;2023-07-22T08:08:16;22.30;99.90
24049;DHT22;12250;50.956;4.746;2023-07-22T08:10:42;22.10;99.90
24049;DHT22;12250;50.956;4.746;2023-07-22T08:13:08;22.00;99.90
24049;DHT22;12250;50.956;4.746;2023-07-22T08:15:34;21.80;99.90
24049;DHT22;12250;50.956;4.746;2023-07-22T08:18:00;21.70;99.90
24049;DHT22;12250;50.956;4.746;2023-07-22T08:20:25;21.50;99.90
24049;DHT22;12250;50.956;4.746;2023-07-22T08:22:51;21.30;99.90
24049;DHT22;12250;50.956;4.746;2023-07-22T08:25:16;21.00;99.90
24049;DHT22;12250;50.956;4.746;2023-07-22T08:27:42;20.80;99.90
24049;DHT22;12250;50.956;4.746;2023-07-22T08:30:08;20.50;99.90
24049;DHT22;12250;50.956;4.746;2023-07-22T08:32:34;20.50;99.90
24049;DHT22;12250;50.956;4.746;2023-07-22T08:34:59;20.70;99.90
24049;DHT22;12250;50.956;4.746;2023-07-22T08:37:25;21.00;99.90
24049;DHT22;12250;50.956;4.746;2023-07-22T08:39:51;21.40;99.90
24049;DHT22;12250;50.956;4.746;2023-07-22T08:42:18;21.90;99.90
24049;DHT22;12250;50.956;4.746;2023-07-22T08:44:48;22.90;99.90
24049;DHT22;12250;50.956;4.746;2023-07-22T08:47:16;24.30;99.90
24049;DHT22;12250;50.956;4.746;2023-07-22T08:49:46;25.90;98.90
24049;DHT22;12250;50.956;4.746;2023-07-22T08:52:15;26.80;95.50
24049;DHT22;12250;50.956;4.746;2023-07-22T08:54:41;26.70;93.20
24049;DHT22;12250;50.956;4.746;2023-07-22T08:57:09;26.50;92.10
24049;DHT22;12250;50.956;4.746;2023-07-22T08:59:36;26.80;91.80
24049;DHT22;12250;50.956;4.746;2023-07-22T09:02:03;27.50;90.00
24049;DHT22;12250;50.956;4.746;2023-07-22T09:04:29;28.50;85.10
24049;DHT22;12250;50.956;4.746;2023-07-22T09:06:55;29.30;82.30
24049;DHT22;12250;50.956;4.746;2023-07-22T09:09:21;30.20;78.30
24049;DHT22;12250;50.956;4.746;2023-07-22T09:11:48;30.40;75.30
24049;DHT22;12250;50.956;4.746;2023-07-22T09:14:15;31.70;71.50
24049;DHT22;12250;50.956;4.746;2023-07-22T09:16:43;33.30;64.90
24049;DHT22;12250;50.956;4.746;2023-07-22T09:19:08;33.80;61.10
24049;DHT22;12250;50.956;4.746;2023-07-22T09:21:34;33.90;57.30
24049;DHT22;12250;50.956;4.746;2023-07-22T09:24:01;33.60;56.50
24049;DHT22;12250;50.956;4.746;2023-07-22T09:26:32;34.50;57.00
24049;DHT22;12250;50.956;4.746;2023-07-22T09:28:58;35.30;53.20
24049;DHT22;12250;50.956;4.746;2023-07-22T09:31:25;35.10;52.00
24049;DHT22;12250;50.956;4.746;2023-07-22T09:33:52;34.90;51.80
24049;DHT22;12250;50.956;4.746;2023-07-22T09:36:21;35.90;51.60
24049;DHT22;12250;50.956;4.746;2023-07-22T09:39:03;37.20;48.50
24049;DHT22;12250;50.956;4.746;2023-07-22T09:41:29;37.00;47.10
24049;DHT22;12250;50.956;4.746;2023-07-22T09:44:01;38.20;45.80
24049;DHT22;12250;50.956;4.746;2023-07-22T09:46:33;39.50;43.00
24049;DHT22;12250;50.956;4.746;2023-07-22T09:49:03;40.20;41.90
24049;DHT22;12250;50.956;4.746;2023-07-22T09:51:34;40.70;39.40
24049;DHT22;12250;50.956;4.746;2023-07-22T09:54:01;39.90;38.80
24049;DHT22;12250;50.956;4.746;2023-07-22T09:56:27;40.10;37.70
24049;DHT22;12250;50.956;4.746;2023-07-22T09:58:53;40.90;36.50
24049;DHT22;12250;50.956;4.746;2023-07-22T10:01:20;39.50;37.30
24049;DHT22;12250;50.956;4.746;2023-07-22T10:03:55;38.10;39.20
24049;DHT22;12250;50.956;4.746;2023-07-22T10:06:26;37.40;39.00
24049;DHT22;12250;50.956;4.746;2023-07-22T10:08:53;37.20;39.00
24049;DHT22;12250;50.956;4.746;2023-07-22T10:11:25;36.40;40.80
24049;DHT22;12250;50.956;4.746;2023-07-22T10:13:53;35.00;40.90
24049;DHT22;12250;50.956;4.746;2023-07-22T10:16:19;35.20;41.00
24049;DHT22;12250;50.956;4.746;2023-07-22T10:18:46;34.90;40.80
24049;DHT22;12250;50.956;4.746;2023-07-22T10:21:13;34.30;43.20
24049;DHT22;12250;50.956;4.746;2023-07-22T10:23:39;34.10;41.80
24049;DHT22;12250;50.956;4.746;2023-07-22T10:26:06;33.70;43.20
24049;DHT22;12250;50.956;4.746;2023-07-22T10:28:32;33.40;43.90
24049;DHT22;12250;50.956;4.746;2023-07-22T10:30:59;33.10;45.80
24049;DHT22;12250;50.956;4.746;2023-07-22T10:33:25;34.50;43.60
24049;DHT22;12250;50.956;4.746;2023-07-22T10:36:06;33.90;41.40
24049;DHT22;12250;50.956;4.746;2023-07-22T10:38:33;32.80;42.30
24049;DHT22;12250;50.956;4.746;2023-07-22T10:40:59;31.30;45.30
24049;DHT22;12250;50.956;4.746;2023-07-22T10:43:27;31.50;46.60
24049;DHT22;12250;50.956;4.746;2023-07-22T10:45:56;32.90;44.80
24049;DHT22;12250;50.956;4.746;2023-07-22T10:48:26;33.90;41.60
24049;DHT22;12250;50.956;4.746;2023-07-22T10:51:13;34.70;40.80
24049;DHT22;12250;50.956;4.746;2023-07-22T10:53:45;36.50;41.00
24049;DHT22;12250;50.956;4.746;2023-07-22T10:56:15;38.30;38.20
24049;DHT22;12250;50.956;4.746;2023-07-22T11:14:32;39.30;33.90
24049;DHT22;12250;50.956;4.746;2023-07-22T11:16:59;39.20;34.30
24049;DHT22;12250;50.956;4.746;2023-07-22T11:19:26;38.80;32.00
24049;DHT22;12250;50.956;4.746;2023-07-22T11:21:53;37.50;34.80
24049;DHT22;12250;50.956;4.746;2023-07-22T11:24:20;36.10;37.00
24049;DHT22;12250;50.956;4.746;2023-07-22T11:26:47;34.80;38.70
24049;DHT22;12250;50.956;4.746;2023-07-22T11:29:13;33.80;39.60
24049;DHT22;12250;50.956;4.746;2023-07-22T11:31:50;32.60;40.70
24049;DHT22;12250;50.956;4.746;2023-07-22T11:36:43;31.60;40.50
24049;DHT22;12250;50.956;4.746;2023-07-22T11:39:11;31.40;42.20
24049;DHT22;12250;50.956;4.746;2023-07-22T11:41:39;32.50;43.30
24049;DHT22;12250;50.956;4.746;2023-07-22T11:44:07;32.70;42.00
24049;DHT22;12250;50.956;4.746;2023-07-22T11:52:08;30.50;44.50
24049;DHT22;12250;50.956;4.746;2023-07-22T11:54:36;29.90;45.60
24049;DHT22;12250;50.956;4.746;2023-07-22T11:57:17;30.00;47.70
24049;DHT22;12250;50.956;4.746;2023-07-22T11:59:45;30.60;46.50
24049;DHT22;12250;50.956;4.746;2023-07-22T12:02:22;30.90;44.60
24049;DHT22;12250;50.956;4.746;2023-07-22T12:04:59;30.60;46.50
24049;DHT22;12250;50.956;4.746;2023-07-22T12:07:26;30.50;45.30
24049;DHT22;12250;50.956;4.746;2023-07-22T12:09:54;30.30;46.80
24049;DHT22;12250;50.956;4.746;2023-07-22T12:12:20;30.30;49.10
24049;DHT22;12250;50.956;4.746;2023-07-22T12:14:45;30.60;45.20
24049;DHT22;12250;50.956;4.746;2023-07-22T12:17:11;30.40;45.80
24049;DHT22;12250;50.956;4.746;2023-07-22T12:19:37;30.00;46.50
24049;DHT22;12250;50.956;4.746;2023-07-22T12:22:03;29.80;46.60
24049;DHT22;12250;50.956;4.746;2023-07-22T12:24:29;29.50;45.90
24049;DHT22;12250;50.956;4.746;2023-07-22T12:26:55;28.90;47.30
24049;DHT22;12250;50.956;4.746;2023-07-22T12:29:21;28.60;49.60
24049;DHT22;12250;50.956;4.746;2023-07-22T12:31:51;28.30;49.80
24049;DHT22;12250;50.956;4.746;2023-07-22T12:34:17;28.10;49.70
24049;DHT22;12250;50.956;4.746;2023-07-22T12:36:43;27.90;47.80
24049;DHT22;12250;50.956;4.746;2023-07-22T12:39:08;27.80;50.70
24049;DHT22;12250;50.956;4.746;2023-07-22T12:41:34;27.80;50.50
24049;DHT22;12250;50.956;4.746;2023-07-22T12:44:00;27.70;49.70
24049;DHT22;12250;50.956;4.746;2023-07-22T12:46:25;27.40;49.50
24049;DHT22;12250;50.956;4.746;2023-07-22T12:48:51;27.30;50.50
24049;DHT22;12250;50.956;4.746;2023-07-22T12:51:17;27.10;51.10
24049;DHT22;12250;50.956;4.746;2023-07-22T12:53:43;26.90;50.90
24049;DHT22;12250;50.956;4.746;2023-07-22T12:56:08;27.00;52.80
24049;DHT22;12250;50.956;4.746;2023-07-22T12:58:34;27.20;52.60
24049;DHT22;12250;50.956;4.746;2023-07-22T13:01:00;27.40;52.20
24049;DHT22;12250;50.956;4.746;2023-07-22T13:03:26;27.30;50.60
24049;DHT22;12250;50.956;4.746;2023-07-22T13:05:51;27.50;50.70
24049;DHT22;12250;50.956;4.746;2023-07-22T13:08:17;27.60;50.30
24049;DHT22;12250;50.956;4.746;2023-07-22T13:10:43;27.70;50.40
24049;DHT22;12250;50.956;4.746;2023-07-22T13:13:10;27.70;50.10
24049;DHT22;12250;50.956;4.746;2023-07-22T13:15:36;27.60;49.00
24049;DHT22;12250;50.956;4.746;2023-07-22T13:18:01;27.60;50.00
24049;DHT22;12250;50.956;4.746;2023-07-22T13:20:29;27.70;50.70
24049;DHT22;12250;50.956;4.746;2023-07-22T13:22:55;27.70;51.30
24049;DHT22;12250;50.956;4.746;2023-07-22T13:25:21;27.70;51.40
24049;DHT22;12250;50.956;4.746;2023-07-22T13:27:47;27.80;49.80
24049;DHT22;12250;50.956;4.746;2023-07-22T13:30:12;27.80;52.50
24049;DHT22;12250;50.956;4.746;2023-07-22T13:32:39;27.80;50.10
24049;DHT22;12250;50.956;4.746;2023-07-22T13:35:05;27.90;50.70
24049;DHT22;12250;50.956;4.746;2023-07-22T13:37:32;28.00;49.80
24049;DHT22;12250;50.956;4.746;2023-07-22T13:39:57;28.20;50.20
24049;DHT22;12250;50.956;4.746;2023-07-22T13:42:23;28.30;51.10
24049;DHT22;12250;50.956;4.746;2023-07-22T13:44:49;28.30;51.20
24049;DHT22;12250;50.956;4.746;2023-07-22T13:47:15;28.30;49.60
24049;DHT22;12250;50.956;4.746;2023-07-22T13:49:41;28.30;48.90
24049;DHT22;12250;50.956;4.746;2023-07-22T13:52:06;28.30;48.30
24049;DHT22;12250;50.956;4.746;2023-07-22T13:54:32;28.60;47.80
24049;DHT22;12250;50.956;4.746;2023-07-22T13:56:58;28.70;46.50
24049;DHT22;12250;50.956;4.746;2023-07-22T13:59:23;28.70;47.40
24049;DHT22;12250;50.956;4.746;2023-07-22T14:01:49;28.60;46.50
24049;DHT22;12250;50.956;4.746;2023-07-22T14:04:15;28.70;46.10
24049;DHT22;12250;50.956;4.746;2023-07-22T14:06:40;28.40;46.70
24049;DHT22;12250;50.956;4.746;2023-07-22T14:09:06;27.90;47.60
24049;DHT22;12250;50.956;4.746;2023-07-22T14:11:32;28.00;49.80
24049;DHT22;12250;50.956;4.746;2023-07-22T14:13:58;28.00;47.80
24049;DHT22;12250;50.956;4.746;2023-07-22T14:16:23;28.00;47.60
24049;DHT22;12250;50.956;4.746;2023-07-22T14:18:49;27.90;47.90
24049;DHT22;12250;50.956;4.746;2023-07-22T14:21:17;27.60;49.10
24049;DHT22;12250;50.956;4.746;2023-07-22T14:23:42;27.20;49.60
24049;DHT22;12250;50.956;4.746;2023-07-22T14:26:09;26.90;50.70
24049;DHT22;12250;50.956;4.746;2023-07-22T14:28:35;26.50;51.60
24049;DHT22;12250;50.956;4.746;2023-07-22T14:31:00;26.00;51.90
24049;DHT22;12250;50.956;4.746;2023-07-22T14:33:26;25.70;52.50
24049;DHT22;12250;50.956;4.746;2023-07-22T14:35:51;25.40;51.50
24049;DHT22;12250;50.956;4.746;2023-07-22T14:38:17;25.00;53.20
24049;DHT22;12250;50.956;4.746;2023-07-22T14:40:43;24.60;54.00
24049;DHT22;12250;50.956;4.746;2023-07-22T14:43:09;24.30;55.70
24049;DHT22;12250;50.956;4.746;2023-07-22T14:45:34;24.10;56.70
24049;DHT22;12250;50.956;4.746;2023-07-22T14:48:00;23.70;56.70
24049;DHT22;12250;50.956;4.746;2023-07-22T14:50:26;23.60;56.90
24049;DHT22;12250;50.956;4.746;2023-07-22T14:52:51;23.50;57.70
24049;DHT22;12250;50.956;4.746;2023-07-22T14:55:17;23.40;58.50
24049;DHT22;12250;50.956;4.746;2023-07-22T14:57:44;23.40;57.80
24049;DHT22;12250;50.956;4.746;2023-07-22T15:00:11;23.40;58.10
24049;DHT22;12250;50.956;4.746;2023-07-22T15:02:37;23.40;59.20
24049;DHT22;12250;50.956;4.746;2023-07-22T15:05:03;23.40;59.50
24049;DHT22;12250;50.956;4.746;2023-07-22T15:07:29;23.60;59.10
24049;DHT22;12250;50.956;4.746;2023-07-22T15:09:57;23.60;58.70
24049;DHT22;12250;50.956;4.746;2023-07-22T15:12:23;23.80;58.70
24049;DHT22;12250;50.956;4.746;2023-07-22T15:14:49;23.80;58.30
24049;DHT22;12250;50.956;4.746;2023-07-22T15:17:15;23.90;59.10
24049;DHT22;12250;50.956;4.746;2023-07-22T15:19:41;23.90;59.10
24049;DHT22;12250;50.956;4.746;2023-07-22T15:22:06;24.00;58.20
24049;DHT22;12250;50.956;4.746;2023-07-22T15:24:32;24.20;58.80
24049;DHT22;12250;50.956;4.746;2023-07-22T15:26:57;24.40;58.00
24049;DHT22;12250;50.956;4.746;2023-07-22T15:29:23;24.50;57.30
24049;DHT22;12250;50.956;4.746;2023-07-22T15:31:49;24.70;57.70
24049;DHT22;12250;50.956;4.746;2023-07-22T15:34:14;24.70;58.40
24049;DHT22;12250;50.956;4.746;2023-07-22T15:36:40;25.00;58.80
24049;DHT22;12250;50.956;4.746;2023-07-22T15:39:06;25.00;57.50
24049;DHT22;12250;50.956;4.746;2023-07-22T15:41:31;25.00;57.20
24049;DHT22;12250;50.956;4.746;2023-07-22T15:43:57;24.80;57.10
24049;DHT22;12250;50.956;4.746;2023-07-22T15:46:22;24.70;57.30
24049;DHT22;12250;50.956;4.746;2023-07-22T15:48:48;24.40;58.10
24049;DHT22;12250;50.956;4.746;2023-07-22T15:51:14;24.40;58.90